sensor_id;sensor_type;location;lat;lon;timestamp;P1;durP1;ratioP1;P2;durP2;ratioP2
50757;SDS011;36732;47.980;11.652;2023-08-24T00:01:16;4.47;;;4.07;;
50757;SDS011;36732;47.980;11.652;2023-08-24T00:03:43;5.88;;;4.95;;
50757;SDS011;36732;47.980;11.652;2023-08-24T00:06:10;5.20;;;4.68;;
50757;SDS011;36732;47.980;11.652;2023-08-24T00:08:37;5.13;;;4.45;;
50757;SDS011;36732;47.980;11.652;2023-08-24T00:11:03;6.05;;;4.70;;
50757;SDS011;36732;47.980;11.652;2023-08-24T00:13:29;5.13;;;4.63;;
50757;SDS011;36732;47.980;11.652;2023-08-24T00:15:55;6.10;;;4.88;;
50757;SDS011;36732;47.980;11.652;2023-08-24T00:18:21;7.28;;;5.05;;
50757;SDS011;36732;47.980;11.652;2023-08-24T00:20:47;5.68;;;4.82;;
50757;SDS011;36732;47.980;11.652;2023-08-24T00:23:14;4.82;;;4.32;;
50757;SDS011;36732;47.980;11.652;2023-08-24T00:25:40;5.80;;;5.10;;
50757;SDS011;36732;47.980;11.652;2023-08-24T00:28:06;5.40;;;4.63;;
50757;SDS011;36732;47.980;11.652;2023-08-24T00:30:32;8.30;;;5.05;;
50757;SDS011;36732;47.980;11.652;2023-08-24T00:32:58;5.22;;;4.43;;
50757;SDS011;36732;47.980;11.652;2023-08-24T00:35:24;7.03;;;4.53;;
50757;SDS011;36732;47.980;11.652;2023-08-24T00:37:50;5.85;;;5.07;;
50757;SDS011;36732;47.980;11.652;2023-08-24T00:40:16;5.28;;;4.78;;
50757;SDS011;36732;47.980;11.652;2023-08-24T00:42:42;5.32;;;4.82;;
50757;SDS011;36732;47.980;11.652;2023-08-24T00:45:11;7.18;;;5.00;;
50757;SDS011;36732;47.980;11.652;2023-08-24T00:47:38;5.18;;;4.28;;
50757;SDS011;36732;47.980;11.652;2023-08-24T00:50:09;5.38;;;4.88;;
50757;SDS011;36732;47.980;11.652;2023-08-24T00:52:39;4.88;;;4.15;;
50757;SDS011;36732;47.980;11.652;2023-08-24T00:55:07;4.78;;;4.38;;
50757;SDS011;36732;47.980;11.652;2023-08-24T00:57:33;5.10;;;4.50;;
50757;SDS011;36732;47.980;11.652;2023-08-24T01:00:03;5.43;;;4.22;;
50757;SDS011;36732;47.980;11.652;2023-08-24T01:02:31;4.63;;;4.15;;
50757;SDS011;36732;47.980;11.652;2023-08-24T01:04:58;6.93;;;4.57;;
50757;SDS011;36732;47.980;11.652;2023-08-24T01:07:24;4.78;;;4.38;;
50757;SDS011;36732;47.980;11.652;2023-08-24T01:09:50;4.97;;;4.40;;
50757;SDS011;36732;47.980;11.652;2023-08-24T01:15:14;5.30;;;4.15;;
50757;SDS011;36732;47.980;11.652;2023-08-24T01:17:46;5.68;;;4.68;;
50757;SDS011;36732;47.980;11.652;2023-08-24T01:20:15;6.53;;;4.90;;
50757;SDS011;36732;47.980;11.652;2023-08-24T01:23:03;5.32;;;4.80;;
50757;SDS011;36732;47.980;11.652;2023-08-24T01:28:39;6.05;;;4.50;;
50757;SDS011;36732;47.980;11.652;2023-08-24T01:31:07;4.68;;;4.28;;
50757;SDS011;36732;47.980;11.652;2023-08-24T01:33:34;5.10;;;4.60;;
50757;SDS011;36732;47.980;11.652;2023-08-24T01:35:59;4.78;;;4.18;;
50757;SDS011;36732;47.980;11.652;2023-08-24T01:38:25;4.75;;;4.13;;
50757;SDS011;36732;47.980;11.652;2023-08-24T01:43:28;4.38;;;3.97;;
50757;SDS011;36732;47.980;11.652;2023-08-24T01:45:58;5.17;;;4.67;;
50757;SDS011;36732;47.980;11.652;2023-08-24T01:48:25;4.40;;;4.00;;
50757;SDS011;36732;47.980;11.652;2023-08-24T01:50:51;4.97;;;4.47;;
50757;SDS011;36732;47.980;11.652;2023-08-24T01:53:17;4.50;;;4.10;;
50757;SDS011;36732;47.980;11.652;2023-08-24T01:55:44;6.30;;;4.45;;
50757;SDS011;36732;47.980;11.652;2023-08-24T01:58:11;5.47;;;4.95;;
50757;SDS011;36732;47.980;11.652;2023-08-24T02:00:36;5.35;;;3.95;;
50757;SDS011;36732;47.980;11.652;2023-08-24T02:03:03;4.88;;;4.07;;
50757;SDS011;36732;47.980;11.652;2023-08-24T02:05:29;4.47;;;4.07;;
50757;SDS011;36732;47.980;11.652;2023-08-24T02:07:55;5.15;;;3.58;;
50757;SDS011;36732;47.980;11.652;2023-08-24T02:10:22;5.03;;;4.00;;
50757;SDS011;36732;47.980;11.652;2023-08-24T02:12:48;4.50;;;4.10;;
50757;SDS011;36732;47.980;11.652;2023-08-24T02:15:13;5.10;;;4.53;;
50757;SDS011;36732;47.980;11.652;2023-08-24T02:17:39;5.68;;;4.72;;
50757;SDS011;36732;47.980;11.652;2023-08-24T02:20:05;5.60;;;4.90;;
50757;SDS011;36732;47.980;11.652;2023-08-24T02:22:33;4.90;;;4.28;;
50757;SDS011;36732;47.980;11.652;2023-08-24T02:24:59;4.97;;;4.50;;
50757;SDS011;36732;47.980;11.652;2023-08-24T02:27:26;5.35;;;4.85;;
50757;SDS011;36732;47.980;11.652;2023-08-24T02:29:52;6.75;;;4.78;;
50757;SDS011;36732;47.980;11.652;2023-08-24T02:32:18;5.72;;;4.80;;
50757;SDS011;36732;47.980;11.652;2023-08-24T02:34:44;5.05;;;4.65;;
50757;SDS011;36732;47.980;11.652;2023-08-24T02:37:09;4.90;;;4.50;;
50757;SDS011;36732;47.980;11.652;2023-08-24T02:39:35;5.28;;;4.78;;
50757;SDS011;36732;47.980;11.652;2023-08-24T02:42:01;5.05;;;4.13;;
50757;SDS011;36732;47.980;11.652;2023-08-24T02:44:27;5.10;;;4.47;;
50757;SDS011;36732;47.980;11.652;2023-08-24T02:46:53;6.50;;;4.80;;
50757;SDS011;36732;47.980;11.652;2023-08-24T02:49:19;5.45;;;4.85;;
50757;SDS011;36732;47.980;11.652;2023-08-24T02:51:45;4.90;;;4.40;;
50757;SDS011;36732;47.980;11.652;2023-08-24T02:54:11;6.00;;;4.15;;
50757;SDS011;36732;47.980;11.652;2023-08-24T02:56:37;5.13;;;4.65;;
50757;SDS011;36732;47.980;11.652;2023-08-24T02:59:02;5.18;;;4.28;;
50757;SDS011;36732;47.980;11.652;2023-08-24T03:01:28;5.15;;;4.05;;
50757;SDS011;36732;47.980;11.652;2023-08-24T03:03:54;5.38;;;4.43;;
50757;SDS011;36732;47.980;11.652;2023-08-24T03:06:20;4.82;;;4.43;;
50757;SDS011;36732;47.980;11.652;2023-08-24T03:08:48;5.28;;;4.35;;
50757;SDS011;36732;47.980;11.652;2023-08-24T03:11:14;4.40;;;4.00;;
50757;SDS011;36732;47.980;11.652;2023-08-24T03:13:40;4.47;;;4.03;;
50757;SDS011;36732;47.980;11.652;2023-08-24T03:16:06;5.13;;;4.50;;
50757;SDS011;36732;47.980;11.652;2023-08-24T03:18:34;5.57;;;4.32;;
50757;SDS011;36732;47.980;11.652;2023-08-24T03:21:00;5.47;;;4.20;;
50757;SDS011;36732;47.980;11.652;2023-08-24T03:23:26;5.85;;;4.07;;
50757;SDS011;36732;47.980;11.652;2023-08-24T03:25:52;7.15;;;4.55;;
50757;SDS011;36732;47.980;11.652;2023-08-24T03:28:18;5.03;;;4.05;;
50757;SDS011;36732;47.980;11.652;2023-08-24T03:30:47;4.93;;;4.07;;
50757;SDS011;36732;47.980;11.652;2023-08-24T03:33:15;6.88;;;4.72;;
50757;SDS011;36732;47.980;11.652;2023-08-24T03:35:41;5.03;;;3.95;;
50757;SDS011;36732;47.980;11.652;2023-08-24T03:38:06;5.00;;;4.45;;
50757;SDS011;36732;47.980;11.652;2023-08-24T03:40:32;4.60;;;4.20;;
50757;SDS011;36732;47.980;11.652;2023-08-24T03:42:58;5.45;;;4.15;;
50757;SDS011;36732;47.980;11.652;2023-08-24T03:45:24;4.72;;;4.32;;
50757;SDS011;36732;47.980;11.652;2023-08-24T03:47:50;5.18;;;4.68;;
50757;SDS011;36732;47.980;11.652;2023-08-24T03:50:16;4.78;;;4.30;;
50757;SDS011;36732;47.980;11.652;2023-08-24T03:52:42;5.90;;;3.92;;
50757;SDS011;36732;47.980;11.652;2023-08-24T03:55:08;5.93;;;4.50;;
50757;SDS011;36732;47.980;11.652;2023-08-24T03:57:33;5.82;;;4.47;;
50757;SDS011;36732;47.980;11.652;2023-08-24T03:59:59;7.60;;;4.53;;
50757;SDS011;36732;47.980;11.652;2023-08-24T04:02:25;5.00;;;4.50;;
50757;SDS011;36732;47.980;11.652;2023-08-24T04:04:52;4.75;;;4.25;;
50757;SDS011;36732;47.980;11.652;2023-08-24T04:07:18;5.32;;;4.63;;
50757;SDS011;36732;47.980;11.652;2023-08-24T04:09:43;4.55;;;4.13;;
50757;SDS011;36732;47.980;11.652;2023-08-24T04:12:10;4.72;;;4.07;;
50757;SDS011;36732;47.980;11.652;2023-08-24T04:14:36;5.43;;;4.65;;
50757;SDS011;36732;47.980;11.652;2023-08-24T04:17:02;6.53;;;4.75;;
50757;SDS011;36732;47.980;11.652;2023-08-24T04:19:28;4.80;;;4.13;;
50757;SDS011;36732;47.980;11.652;2023-08-24T04:21:54;5.60;;;4.45;;
50757;SDS011;36732;47.980;11.652;2023-08-24T04:24:19;4.72;;;4.10;;
50757;SDS011;36732;47.980;11.652;2023-08-24T04:26:45;4.32;;;3.92;;
50757;SDS011;36732;47.980;11.652;2023-08-24T04:29:11;6.43;;;4.25;;
50757;SDS011;36732;47.980;11.652;2023-08-24T04:31:37;4.70;;;4.30;;
50757;SDS011;36732;47.980;11.652;2023-08-24T04:34:05;5.15;;;4.50;;
50757;SDS011;36732;47.980;11.652;2023-08-24T04:36:31;7.45;;;4.50;;
50757;SDS011;36732;47.980;11.652;2023-08-24T04:38:56;5.20;;;4.57;;
50757;SDS011;36732;47.980;11.652;2023-08-24T04:41:22;6.53;;;4.55;;
50757;SDS011;36732;47.980;11.652;2023-08-24T04:43:48;4.90;;;4.35;;
50757;SDS011;36732;47.980;11.652;2023-08-24T04:46:14;4.60;;;4.20;;
50757;SDS011;36732;47.980;11.652;2023-08-24T04:48:39;4.70;;;3.88;;
50757;SDS011;36732;47.980;11.652;2023-08-24T04:51:05;4.63;;;3.88;;
50757;SDS011;36732;47.980;11.652;2023-08-24T04:53:31;5.25;;;4.75;;
50757;SDS011;36732;47.980;11.652;2023-08-24T04:55:56;5.35;;;4.13;;
50757;SDS011;36732;47.980;11.652;2023-08-24T04:58:22;6.57;;;4.07;;
50757;SDS011;36732;47.980;11.652;2023-08-24T05:00:48;4.93;;;4.38;;
50757;SDS011;36732;47.980;11.652;2023-08-24T05:03:14;5.03;;;4.43;;
50757;SDS011;36732;47.980;11.652;2023-08-24T05:05:40;4.63;;;3.88;;
50757;SDS011;36732;47.980;11.652;2023-08-24T05:08:06;6.97;;;4.75;;
50757;SDS011;36732;47.980;11.652;2023-08-24T05:10:35;6.65;;;4.63;;
50757;SDS011;36732;47.980;11.652;2023-08-24T05:13:01;7.03;;;4.88;;
50757;SDS011;36732;47.980;11.652;2023-08-24T05:15:28;6.15;;;4.57;;
50757;SDS011;36732;47.980;11.652;2023-08-24T05:17:53;5.88;;;4.88;;
50757;SDS011;36732;47.980;11.652;2023-08-24T05:20:24;9.82;;;4.63;;
50757;SDS011;36732;47.980;11.652;2023-08-24T05:22:51;5.78;;;4.57;;
50757;SDS011;36732;47.980;11.652;2023-08-24T05:25:19;6.47;;;5.35;;
50757;SDS011;36732;47.980;11.652;2023-08-24T05:27:46;4.93;;;4.53;;
50757;SDS011;36732;47.980;11.652;2023-08-24T05:30:12;7.55;;;4.47;;
50757;SDS011;36732;47.980;11.652;2023-08-24T05:32:38;4.78;;;4.38;;
50757;SDS011;36732;47.980;11.652;2023-08-24T05:35:04;4.10;;;3.70;;
50757;SDS011;36732;47.980;11.652;2023-08-24T05:37:31;4.65;;;4.25;;
50757;SDS011;36732;47.980;11.652;2023-08-24T05:39:58;4.65;;;4.25;;
50757;SDS011;36732;47.980;11.652;2023-08-24T05:42:26;7.63;;;5.47;;
50757;SDS011;36732;47.980;11.652;2023-08-24T05:44:52;5.15;;;4.65;;
50757;SDS011;36732;47.980;11.652;2023-08-24T05:47:18;7.20;;;5.35;;
50757;SDS011;36732;47.980;11.652;2023-08-24T05:49:43;5.32;;;4.80;;
50757;SDS011;36732;47.980;11.652;2023-08-24T05:52:09;5.82;;;5.25;;
50757;SDS011;36732;47.980;11.652;2023-08-24T05:54:38;7.28;;;5.25;;
50757;SDS011;36732;47.980;11.652;2023-08-24T05:57:04;8.52;;;4.63;;
50757;SDS011;36732;47.980;11.652;2023-08-24T05:59:30;6.07;;;4.45;;
50757;SDS011;36732;47.980;11.652;2023-08-24T06:01:58;6.35;;;4.93;;
50757;SDS011;36732;47.980;11.652;2023-08-24T06:04:23;6.88;;;5.35;;
50757;SDS011;36732;47.980;11.652;2023-08-24T06:06:49;8.30;;;5.07;;
50757;SDS011;36732;47.980;11.652;2023-08-24T06:09:15;5.53;;;5.03;;
50757;SDS011;36732;47.980;11.652;2023-08-24T06:11:40;6.18;;;5.22;;
50757;SDS011;36732;47.980;11.652;2023-08-24T06:14:06;7.03;;;5.20;;
50757;SDS011;36732;47.980;11.652;2023-08-24T06:16:32;5.68;;;4.85;;
50757;SDS011;36732;47.980;11.652;2023-08-24T06:18:58;9.02;;;5.45;;
50757;SDS011;36732;47.980;11.652;2023-08-24T06:21:24;7.95;;;5.50;;
50757;SDS011;36732;47.980;11.652;2023-08-24T06:23:49;6.97;;;5.50;;
50757;SDS011;36732;47.980;11.652;2023-08-24T06:26:16;6.38;;;4.70;;
50757;SDS011;36732;47.980;11.652;2023-08-24T06:28:42;12.00;;;5.35;;
50757;SDS011;36732;47.980;11.652;2023-08-24T06:31:09;7.70;;;5.35;;
50757;SDS011;36732;47.980;11.652;2023-08-24T06:33:34;9.23;;;5.15;;
50757;SDS011;36732;47.980;11.652;2023-08-24T06:36:02;5.63;;;5.13;;
50757;SDS011;36732;47.980;11.652;2023-08-24T06:38:30;6.00;;;4.90;;
50757;SDS011;36732;47.980;11.652;2023-08-24T06:40:57;5.32;;;4.85;;
50757;SDS011;36732;47.980;11.652;2023-08-24T06:43:23;5.72;;;4.22;;
50757;SDS011;36732;47.980;11.652;2023-08-24T06:45:51;6.22;;;5.30;;
50757;SDS011;36732;47.980;11.652;2023-08-24T06:48:16;5.90;;;4.35;;
50757;SDS011;36732;47.980;11.652;2023-08-24T06:50:43;5.18;;;4.47;;
50757;SDS011;36732;47.980;11.652;2023-08-24T06:53:09;5.47;;;4.97;;
50757;SDS011;36732;47.980;11.652;2023-08-24T06:55:35;8.55;;;5.20;;
50757;SDS011;36732;47.980;11.652;2023-08-24T06:58:01;6.60;;;4.65;;
50757;SDS011;36732;47.980;11.652;2023-08-24T07:00:30;5.85;;;5.25;;
50757;SDS011;36732;47.980;11.652;2023-08-24T07:02:56;5.68;;;5.18;;
50757;SDS011;36732;47.980;11.652;2023-08-24T07:05:22;7.32;;;4.95;;
50757;SDS011;36732;47.980;11.652;2023-08-24T07:07:51;5.15;;;4.65;;
50757;SDS011;36732;47.980;11.652;2023-08-24T07:10:18;7.47;;;5.30;;
50757;SDS011;36732;47.980;11.652;2023-08-24T07:12:45;5.95;;;5.10;;
50757;SDS011;36732;47.980;11.652;2023-08-24T07:15:12;6.47;;;5.13;;
50757;SDS011;36732;47.980;11.652;2023-08-24T07:17:38;6.25;;;5.03;;
50757;SDS011;36732;47.980;11.652;2023-08-24T07:20:04;5.80;;;5.30;;
50757;SDS011;36732;47.980;11.652;2023-08-24T07:22:31;6.57;;;4.63;;
50757;SDS011;36732;47.980;11.652;2023-08-24T07:24:57;5.50;;;4.70;;
50757;SDS011;36732;47.980;11.652;2023-08-24T07:27:23;5.72;;;4.93;;
50757;SDS011;36732;47.980;11.652;2023-08-24T07:29:49;6.35;;;4.70;;
50757;SDS011;36732;47.980;11.652;2023-08-24T07:32:15;6.80;;;4.82;;
50757;SDS011;36732;47.980;11.652;2023-08-24T07:34:41;8.38;;;5.20;;
50757;SDS011;36732;47.980;11.652;2023-08-24T07:37:07;6.45;;;4.40;;
50757;SDS011;36732;47.980;11.652;2023-08-24T07:39:34;4.47;;;4.07;;
50757;SDS011;36732;47.980;11.652;2023-08-24T07:42:00;5.57;;;4.80;;
50757;SDS011;36732;47.980;11.652;2023-08-24T07:44:26;5.85;;;4.80;;
50757;SDS011;36732;47.980;11.652;2023-08-24T07:46:53;6.60;;;5.20;;
50757;SDS011;36732;47.980;11.652;2023-08-24T07:49:18;6.40;;;5.10;;
50757;SDS011;36732;47.980;11.652;2023-08-24T07:51:44;6.13;;;4.80;;
50757;SDS011;36732;47.980;11.652;2023-08-24T07:54:12;6.18;;;4.88;;
50757;SDS011;36732;47.980;11.652;2023-08-24T07:56:38;6.35;;;4.88;;
50757;SDS011;36732;47.980;11.652;2023-08-24T07:59:03;4.72;;;4.03;;
50757;SDS011;36732;47.980;11.652;2023-08-24T08:01:29;4.97;;;4.40;;
50757;SDS011;36732;47.980;11.652;2023-08-24T08:03:55;4.88;;;4.35;;
50757;SDS011;36732;47.980;11.652;2023-08-24T08:06:21;5.05;;;4.28;;
50757;SDS011;36732;47.980;11.652;2023-08-24T08:08:49;6.38;;;4.30;;
50757;SDS011;36732;47.980;11.652;2023-08-24T08:11:16;6.13;;;5.10;;
50757;SDS011;36732;47.980;11.652;2023-08-24T08:13:42;4.63;;;4.22;;
50757;SDS011;36732;47.980;11.652;2023-08-24T08:16:08;5.30;;;4.35;;
50757;SDS011;36732;47.980;11.652;2023-08-24T08:18:35;6.63;;;4.68;;
50757;SDS011;36732;47.980;11.652;2023-08-24T08:21:08;5.50;;;4.40;;
50757;SDS011;36732;47.980;11.652;2023-08-24T08:23:43;5.68;;;4.55;;
50757;SDS011;36732;47.980;11.652;2023-08-24T08:26:10;5.50;;;4.55;;
50757;SDS011;36732;47.980;11.652;2023-08-24T08:28:38;4.78;;;3.88;;
50757;SDS011;36732;47.980;11.652;2023-08-24T08:31:04;5.45;;;3.95;;
50757;SDS011;36732;47.980;11.652;2023-08-24T08:33:31;5.25;;;3.72;;
50757;SDS011;36732;47.980;11.652;2023-08-24T08:35:57;7.38;;;5.32;;
50757;SDS011;36732;47.980;11.652;2023-08-24T08:38:22;5.78;;;4.63;;
50757;SDS011;36732;47.980;11.652;2023-08-24T08:40:51;6.75;;;4.13;;
50757;SDS011;36732;47.980;11.652;2023-08-24T08:43:22;6.28;;;4.65;;
50757;SDS011;36732;47.980;11.652;2023-08-24T08:45:51;8.40;;;4.40;;
50757;SDS011;36732;47.980;11.652;2023-08-24T08:48:20;4.47;;;4.07;;
50757;SDS011;36732;47.980;11.652;2023-08-24T08:50:50;6.05;;;4.55;;
50757;SDS011;36732;47.980;11.652;2023-08-24T08:53:24;6.10;;;4.68;;
50757;SDS011;36732;47.980;11.652;2023-08-24T08:55:54;4.70;;;4.30;;
50757;SDS011;36732;47.980;11.652;2023-08-24T08:58:22;5.55;;;4.38;;
50757;SDS011;36732;47.980;11.652;2023-08-24T09:00:49;8.18;;;4.70;;
50757;SDS011;36732;47.980;11.652;2023-08-24T09:03:17;5.80;;;4.40;;
50757;SDS011;36732;47.980;11.652;2023-08-24T09:05:44;7.10;;;4.07;;
50757;SDS011;36732;47.980;11.652;2023-08-24T09:08:13;5.82;;;4.35;;
50757;SDS011;36732;47.980;11.652;2023-08-24T09:10:42;4.80;;;4.30;;
50757;SDS011;36732;47.980;11.652;2023-08-24T09:13:09;6.60;;;5.13;;
50757;SDS011;36732;47.980;11.652;2023-08-24T09:15:35;7.80;;;4.25;;
50757;SDS011;36732;47.980;11.652;2023-08-24T09:18:03;5.50;;;4.22;;
50757;SDS011;36732;47.980;11.652;2023-08-24T09:20:29;4.45;;;3.95;;
50757;SDS011;36732;47.980;11.652;2023-08-24T09:22:55;6.05;;;4.70;;
50757;SDS011;36732;47.980;11.652;2023-08-24T09:25:22;6.47;;;4.30;;
50757;SDS011;36732;47.980;11.652;2023-08-24T09:27:56;9.23;;;4.70;;
50757;SDS011;36732;47.980;11.652;2023-08-24T09:30:29;5.75;;;4.07;;
50757;SDS011;36732;47.980;11.652;2023-08-24T09:33:06;8.48;;;4.43;;
50757;SDS011;36732;47.980;11.652;2023-08-24T09:35:35;7.22;;;4.55;;
50757;SDS011;36732;47.980;11.652;2023-08-24T09:40:51;5.22;;;4.15;;
50757;SDS011;36732;47.980;11.652;2023-08-24T09:45:51;4.93;;;4.13;;
50757;SDS011;36732;47.980;11.652;2023-08-24T09:48:21;6.75;;;4.55;;
50757;SDS011;36732;47.980;11.652;2023-08-24T09:50:48;5.43;;;4.35;;
50757;SDS011;36732;47.980;11.652;2023-08-24T09:53:22;6.85;;;4.70;;
50757;SDS011;36732;47.980;11.652;2023-08-24T09:55:53;5.05;;;3.75;;
50757;SDS011;36732;47.980;11.652;2023-08-24T09:58:26;6.18;;;4.75;;
50757;SDS011;36732;47.980;11.652;2023-08-24T10:00:53;5.95;;;4.38;;
50757;SDS011;36732;47.980;11.652;2023-08-24T10:03:21;5.95;;;5.13;;
50757;SDS011;36732;47.980;11.652;2023-08-24T10:05:51;7.95;;;4.43;;
50757;SDS011;36732;47.980;11.652;2023-08-24T10:08:29;12.07;;;5.35;;
50757;SDS011;36732;47.980;11.652;2023-08-24T10:11:00;4.18;;;3.78;;
50757;SDS011;36732;47.980;11.652;2023-08-24T10:16:32;4.65;;;4.13;;
50757;SDS011;36732;47.980;11.652;2023-08-24T10:18:59;5.15;;;3.78;;
50757;SDS011;36732;47.980;11.652;2023-08-24T10:21:25;7.22;;;4.63;;
50757;SDS011;36732;47.980;11.652;2023-08-24T10:23:54;5.00;;;4.03;;
50757;SDS011;36732;47.980;11.652;2023-08-24T10:26:22;5.53;;;3.42;;
50757;SDS011;36732;47.980;11.652;2023-08-24T10:28:52;5.80;;;3.78;;
50757;SDS011;36732;47.980;11.652;2023-08-24T10:31:18;5.40;;;3.42;;
50757;SDS011;36732;47.980;11.652;2023-08-24T10:33:45;4.45;;;3.90;;
50757;SDS011;36732;47.980;11.652;2023-08-24T10:36:12;4.65;;;3.65;;
50757;SDS011;36732;47.980;11.652;2023-08-24T10:38:42;4.30;;;3.90;;
50757;SDS011;36732;47.980;11.652;2023-08-24T10:41:09;4.18;;;3.55;;
50757;SDS011;36732;47.980;11.652;2023-08-24T10:43:39;4.45;;;3.75;;
50757;SDS011;36732;47.980;11.652;2023-08-24T10:46:12;3.78;;;3.13;;
50757;SDS011;36732;47.980;11.652;2023-08-24T10:51:21;4.70;;;4.07;;
50757;SDS011;36732;47.980;11.652;2023-08-24T10:53:55;3.90;;;3.20;;
50757;SDS011;36732;47.980;11.652;2023-08-24T10:56:35;4.72;;;3.38;;
50757;SDS011;36732;47.980;11.652;2023-08-24T10:59:36;3.53;;;2.80;;
50757;SDS011;36732;47.980;11.652;2023-08-24T11:02:00;5.32;;;3.72;;
50757;SDS011;36732;47.980;11.652;2023-08-24T11:04:26;4.65;;;2.83;;
50757;SDS011;36732;47.980;11.652;2023-08-24T11:06:53;4.82;;;2.95;;
50757;SDS011;36732;47.980;11.652;2023-08-24T11:09:24;4.25;;;3.33;;
50757;SDS011;36732;47.980;11.652;2023-08-24T11:11:57;3.90;;;3.13;;
50757;SDS011;36732;47.980;11.652;2023-08-24T11:14:25;5.22;;;3.60;;
50757;SDS011;36732;47.980;11.652;2023-08-24T11:16:52;4.03;;;3.58;;
50757;SDS011;36732;47.980;11.652;2023-08-24T11:19:19;5.90;;;3.35;;
50757;SDS011;36732;47.980;11.652;2023-08-24T11:21:45;5.50;;;3.83;;
50757;SDS011;36732;47.980;11.652;2023-08-24T11:24:12;8.48;;;3.10;;
50757;SDS011;36732;47.980;11.652;2023-08-24T11:26:42;5.32;;;3.20;;
50757;SDS011;36732;47.980;11.652;2023-08-24T11:29:13;4.45;;;3.40;;
50757;SDS011;36732;47.980;11.652;2023-08-24T11:31:46;4.82;;;3.58;;
50757;SDS011;36732;47.980;11.652;2023-08-24T11:34:14;5.57;;;3.35;;
50757;SDS011;36732;47.980;11.652;2023-08-24T11:36:45;4.32;;;3.60;;
50757;SDS011;36732;47.980;11.652;2023-08-24T11:39:16;7.20;;;3.65;;
50757;SDS011;36732;47.980;11.652;2023-08-24T11:41:45;6.40;;;3.53;;
50757;SDS011;36732;47.980;11.652;2023-08-24T11:44:29;4.75;;;3.70;;
50757;SDS011;36732;47.980;11.652;2023-08-24T11:46:57;3.90;;;3.55;;
50757;SDS011;36732;47.980;11.652;2023-08-24T11:49:24;3.90;;;3.60;;
50757;SDS011;36732;47.980;11.652;2023-08-24T11:51:50;4.03;;;3.40;;
50757;SDS011;36732;47.980;11.652;2023-08-24T11:54:19;8.93;;;4.10;;
50757;SDS011;36732;47.980;11.652;2023-08-24T11:56:46;6.03;;;3.92;;
50757;SDS011;36732;47.980;11.652;2023-08-24T11:59:12;6.22;;;4.32;;
50757;SDS011;36732;47.980;11.652;2023-08-24T12:01:39;4.75;;;3.72;;
50757;SDS011;36732;47.980;11.652;2023-08-24T12:04:06;5.90;;;4.05;;
50757;SDS011;36732;47.980;11.652;2023-08-24T12:06:32;9.02;;;4.05;;
50757;SDS011;36732;47.980;11.652;2023-08-24T12:08:58;7.28;;;3.17;;
50757;SDS011;36732;47.980;11.652;2023-08-24T12:11:24;9.40;;;3.55;;
50757;SDS011;36732;47.980;11.652;2023-08-24T12:13:50;6.45;;;3.67;;
50757;SDS011;36732;47.980;11.652;2023-08-24T12:16:20;6.30;;;3.92;;
50757;SDS011;36732;47.980;11.652;2023-08-24T12:18:51;5.90;;;3.55;;
50757;SDS011;36732;47.980;11.652;2023-08-24T12:21:30;6.25;;;3.40;;
50757;SDS011;36732;47.980;11.652;2023-08-24T12:26:30;8.43;;;3.40;;
50757;SDS011;36732;47.980;11.652;2023-08-24T12:29:09;7.85;;;3.47;;
50757;SDS011;36732;47.980;11.652;2023-08-24T12:31:35;5.90;;;3.70;;
50757;SDS011;36732;47.980;11.652;2023-08-24T12:34:05;5.95;;;3.50;;
50757;SDS011;36732;47.980;11.652;2023-08-24T12:36:35;7.87;;;3.40;;
50757;SDS011;36732;47.980;11.652;2023-08-24T12:39:03;6.90;;;3.58;;
50757;SDS011;36732;47.980;11.652;2023-08-24T12:41:30;5.78;;;3.45;;
50757;SDS011;36732;47.980;11.652;2023-08-24T12:43:56;4.75;;;3.67;;
50757;SDS011;36732;47.980;11.652;2023-08-24T12:46:22;5.47;;;3.30;;
50757;SDS011;36732;47.980;11.652;2023-08-24T12:48:49;6.30;;;3.63;;
50757;SDS011;36732;47.980;11.652;2023-08-24T12:51:15;6.55;;;3.50;;
50757;SDS011;36732;47.980;11.652;2023-08-24T12:53:41;5.75;;;3.65;;
50757;SDS011;36732;47.980;11.652;2023-08-24T12:56:08;6.75;;;3.42;;
50757;SDS011;36732;47.980;11.652;2023-08-24T12:58:33;7.05;;;3.30;;
50757;SDS011;36732;47.980;11.652;2023-08-24T13:00:59;4.60;;;3.58;;
50757;SDS011;36732;47.980;11.652;2023-08-24T13:03:25;7.15;;;3.25;;
50757;SDS011;36732;47.980;11.652;2023-08-24T13:05:51;4.97;;;3.50;;
50757;SDS011;36732;47.980;11.652;2023-08-24T13:08:17;8.60;;;3.60;;
50757;SDS011;36732;47.980;11.652;2023-08-24T13:10:42;6.85;;;3.22;;
50757;SDS011;36732;47.980;11.652;2023-08-24T13:13:08;6.32;;;3.33;;
50757;SDS011;36732;47.980;11.652;2023-08-24T13:15:34;6.00;;;3.30;;
50757;SDS011;36732;47.980;11.652;2023-08-24T13:18:00;5.93;;;3.55;;
50757;SDS011;36732;47.980;11.652;2023-08-24T13:20:25;9.70;;;3.35;;
50757;SDS011;36732;47.980;11.652;2023-08-24T13:22:52;10.43;;;2.63;;
50757;SDS011;36732;47.980;11.652;2023-08-24T13:25:18;4.75;;;3.15;;
50757;SDS011;36732;47.980;11.652;2023-08-24T13:27:44;7.32;;;3.45;;
50757;SDS011;36732;47.980;11.652;2023-08-24T13:30:10;4.63;;;2.67;;
50757;SDS011;36732;47.980;11.652;2023-08-24T13:32:36;7.72;;;3.28;;
50757;SDS011;36732;47.980;11.652;2023-08-24T13:35:02;8.20;;;3.40;;
50757;SDS011;36732;47.980;11.652;2023-08-24T13:37:28;3.88;;;2.88;;
50757;SDS011;36732;47.980;11.652;2023-08-24T13:39:54;5.18;;;3.33;;
50757;SDS011;36732;47.980;11.652;2023-08-24T13:42:20;9.02;;;3.10;;
50757;SDS011;36732;47.980;11.652;2023-08-24T13:44:46;8.18;;;3.00;;
50757;SDS011;36732;47.980;11.652;2023-08-24T13:47:12;5.22;;;2.80;;
50757;SDS011;36732;47.980;11.652;2023-08-24T13:49:38;4.38;;;2.92;;
50757;SDS011;36732;47.980;11.652;2023-08-24T13:52:04;7.80;;;3.42;;
50757;SDS011;36732;47.980;11.652;2023-08-24T13:54:30;8.45;;;3.35;;
50757;SDS011;36732;47.980;11.652;2023-08-24T13:56:56;7.32;;;3.80;;
50757;SDS011;36732;47.980;11.652;2023-08-24T13:59:23;7.60;;;3.38;;
50757;SDS011;36732;47.980;11.652;2023-08-24T14:01:49;4.47;;;3.78;;
50757;SDS011;36732;47.980;11.652;2023-08-24T14:04:15;5.88;;;3.28;;
50757;SDS011;36732;47.980;11.652;2023-08-24T14:06:40;6.43;;;3.70;;
50757;SDS011;36732;47.980;11.652;2023-08-24T14:09:06;4.13;;;3.55;;
50757;SDS011;36732;47.980;11.652;2023-08-24T14:11:32;6.32;;;3.25;;
50757;SDS011;36732;47.980;11.652;2023-08-24T14:13:58;6.97;;;3.20;;
50757;SDS011;36732;47.980;11.652;2023-08-24T14:16:24;6.50;;;3.95;;
50757;SDS011;36732;47.980;11.652;2023-08-24T14:18:51;6.35;;;3.70;;
50757;SDS011;36732;47.980;11.652;2023-08-24T14:21:18;5.10;;;3.53;;
50757;SDS011;36732;47.980;11.652;2023-08-24T14:23:45;8.55;;;3.72;;
50757;SDS011;36732;47.980;11.652;2023-08-24T14:26:11;7.00;;;3.70;;
50757;SDS011;36732;47.980;11.652;2023-08-24T14:28:56;8.32;;;3.58;;
50757;SDS011;36732;47.980;11.652;2023-08-24T14:31:23;5.55;;;3.45;;
50757;SDS011;36732;47.980;11.652;2023-08-24T14:33:52;6.25;;;3.33;;
50757;SDS011;36732;47.980;11.652;2023-08-24T14:36:19;5.65;;;3.50;;
50757;SDS011;36732;47.980;11.652;2023-08-24T14:38:45;9.00;;;3.67;;
50757;SDS011;36732;47.980;11.652;2023-08-24T14:41:13;9.40;;;3.78;;
50757;SDS011;36732;47.980;11.652;2023-08-24T14:43:40;6.47;;;3.35;;
50757;SDS011;36732;47.980;11.652;2023-08-24T14:46:06;8.40;;;4.00;;
50757;SDS011;36732;47.980;11.652;2023-08-24T14:48:33;7.10;;;3.58;;
50757;SDS011;36732;47.980;11.652;2023-08-24T14:50:59;6.22;;;3.67;;
50757;SDS011;36732;47.980;11.652;2023-08-24T14:53:26;8.32;;;3.58;;
50757;SDS011;36732;47.980;11.652;2023-08-24T14:55:52;5.20;;;3.30;;